地図

経路データ

SID SEASON NUMBER BASIN SUBBASIN NAME ISO_TIME NATURE LAT LON WMO_WIND WMO_PRES WMO_AGENCY TRACK_TYPE DIST2LAND LANDFALL IFLAG USA_AGENCY USA_ATCF_ID USA_LAT USA_LON USA_RECORD USA_STATUS USA_WIND USA_PRES USA_SSHS USA_R34_NE USA_R34_SE USA_R34_SW USA_R34_NW USA_R50_NE USA_R50_SE USA_R50_SW USA_R50_NW USA_R64_NE USA_R64_SE USA_R64_SW USA_R64_NW USA_POCI USA_ROCI USA_RMW USA_EYE TOKYO_LAT TOKYO_LON TOKYO_GRADE TOKYO_WIND TOKYO_PRES TOKYO_R50_DIR TOKYO_R50_LONG TOKYO_R50_SHORT TOKYO_R30_DIR TOKYO_R30_LONG TOKYO_R30_SHORT TOKYO_LAND CMA_LAT CMA_LON CMA_CAT CMA_WIND CMA_PRES HKO_LAT HKO_LON HKO_CAT HKO_WIND HKO_PRES NEWDELHI_LAT NEWDELHI_LON NEWDELHI_GRADE NEWDELHI_WIND NEWDELHI_PRES NEWDELHI_CI NEWDELHI_DP NEWDELHI_POCI REUNION_LAT REUNION_LON REUNION_TYPE REUNION_WIND REUNION_PRES REUNION_TNUM REUNION_CI REUNION_RMW REUNION_R34_NE REUNION_R34_SE REUNION_R34_SW REUNION_R34_NW REUNION_R50_NE REUNION_R50_SE REUNION_R50_SW REUNION_R50_NW REUNION_R64_NE REUNION_R64_SE REUNION_R64_SW REUNION_R64_NW BOM_LAT BOM_LON BOM_TYPE BOM_WIND BOM_PRES BOM_TNUM BOM_CI BOM_RMW BOM_R34_NE BOM_R34_SE BOM_R34_SW BOM_R34_NW BOM_R50_NE BOM_R50_SE BOM_R50_SW BOM_R50_NW BOM_R64_NE BOM_R64_SE BOM_R64_SW BOM_R64_NW BOM_ROCI BOM_POCI BOM_EYE BOM_POS_METHOD BOM_PRES_METHOD NADI_LAT NADI_LON NADI_CAT NADI_WIND NADI_PRES WELLINGTON_LAT WELLINGTON_LON WELLINGTON_WIND WELLINGTON_PRES DS824_LAT DS824_LON DS824_STAGE DS824_WIND DS824_PRES TD9636_LAT TD9636_LON TD9636_STAGE TD9636_WIND TD9636_PRES TD9635_LAT TD9635_LON TD9635_WIND TD9635_PRES TD9635_ROCI NEUMANN_LAT NEUMANN_LON NEUMANN_CLASS NEUMANN_WIND NEUMANN_PRES MLC_LAT MLC_LON MLC_CLASS MLC_WIND MLC_PRES USA_GUST BOM_GUST BOM_GUST_PER REUNION_GUST REUNION_GUST_PER USA_SEAHGT USA_SEARAD_NE USA_SEARAD_SE USA_SEARAD_SW USA_SEARAD_NW STORM_SPEED STORM_DIR
1962045S19118 1962 19 SI WA NOT_NAMED 1962-02-14 06:00:00 TS -19.1000 118.300 main 139 139 ____________O_ -1 -19.1000 118.300 TC 35 998 2 0
1962045S19118 1962 19 SI WA NOT_NAMED 1962-02-14 07:00:00 TS -19.1197 118.271 999 bom main 139 134 ______O_____P_ -1 -19.1000 118.700 999 -19.1295 118.057 TC 35 997 7 261
1962045S19118 1962 19 SI WA NOT_NAMED 1962-02-14 09:00:00 TS -19.1535 117.957 main 134 134 ______P_____P_ -1 -19.0977 118.527 999 -19.1907 117.578 TC 35 997 9 263
1962045S19118 1962 19 SI WA NOT_NAMED 1962-02-14 10:00:00 TS -19.1709 117.797 999 bom main 137 137 ______O_____P_ -1 -19.1000 118.400 999 -19.2240 117.345 TC 35 997 8 264
1962045S19118 1962 19 SI WA NOT_NAMED 1962-02-14 11:00:00 TS -19.1832 117.674 main 140 144 ______P_____P_ -1 -19.1062 118.230 998 -19.2602 117.118 TC 35 997 10 263
1962045S19118 1962 19 SI WA NOT_NAMED 1962-02-14 12:00:00 TS -19.2082 117.460 main 148 145 ______P_____O_ -1 -19.1165 118.021 998 -19.3000 116.900 TC 35 997 13 262
1962045S19118 1962 19 SI WA NOT_NAMED 1962-02-14 15:00:00 TS -19.3073 116.778 main 145 145 ______P_____P_ -1 -19.1726 117.264 998 -19.4421 116.292 TC 35 997 13 261
1962045S19118 1962 19 SI WA NOT_NAMED 1962-02-14 16:00:00 TS -19.3471 116.548 998 bom main 146 135 ______O_____P_ -1 -19.2000 117.000 998 -19.4942 116.097 TC 35 997 13 258
1962045S19118 1962 19 SI WA NOT_NAMED 1962-02-14 18:00:00 TS -19.4378 116.116 main 148 143 ______P_____O_ -1 -19.2755 116.532 -19.6000 115.700 TC 35 997 13 257
1962045S19118 1962 19 SI WA NOT_NAMED 1962-02-14 21:00:00 TS -19.5968 115.423 main 167 167 ______P_____P_ -1 -19.4283 115.841 -19.7653 115.005 TC 35 997 13 256
1962045S19118 1962 19 SI WA NOT_NAMED 1962-02-14 23:00:00 TS -19.7040 114.988 main 182 182 ______P_____P_ -1 -19.5464 115.397 -19.8616 114.579 TC 35 997 12 255
1962045S19118 1962 19 SI WA NOT_NAMED 1962-02-15 00:00:00 TS -19.7539 114.791 main 185 185 ______P_____O_ -1 -19.6078 115.183 -19.9000 114.400 TC 35 997 10 255
1962045S19118 1962 19 SI WA NOT_NAMED 1962-02-15 03:00:00 TS -19.8814 114.302 main 210 210 ______P_____P_ -1 -19.7906 114.579 -19.9722 114.025 TC 35 996 8 255
1962045S19118 1962 19 SI WA NOT_NAMED 1962-02-15 06:00:00 TS -19.9769 113.927 main 212 212 ______P_____O_ -1 -19.9539 114.054 -20.0000 113.800 TC 35 996 7 255
1962045S19118 1962 19 SI WA NOT_NAMED 1962-02-15 07:00:00 TS -20.0028 113.816 997 bom main 213 213 ______O_____P_ -1 -20.0000 113.900 997 -20.0057 113.733 TC 35 996 6 258
1962045S19118 1962 19 SI WA NOT_NAMED 1962-02-15 09:00:00 TS -20.0331 113.639 main 216 207 ______P_____P_ -1 -20.0589 113.650 -20.0074 113.627 TC 35 996 5 261
1962045S19118 1962 19 SI WA NOT_NAMED 1962-02-15 11:00:00 TS -20.0532 113.495 main 207 207 ______P_____P_ -1 -20.1037 113.448 -20.0026 113.542 TC 35 996 2 266
1962045S19118 1962 19 SI WA NOT_NAMED 1962-02-15 12:00:00 TS -20.0428 113.506 main 218 210 ______P_____O_ -1 -20.1213 113.364 -20.0000 113.500 TC 35 996 1 271
1962045S19118 1962 19 SI WA NOT_NAMED 1962-02-15 15:00:00 TS -20.0512 113.400 main 210 210 ______P_____P_ -1 -20.1557 113.166 -20.0000 113.350 TC 37 995 2 266
1962045S19118 1962 19 SI WA NOT_NAMED 1962-02-15 18:00:00 TS -20.0563 113.312 main 213 213 ______P_____O_ -1 -20.1656 113.034 -20.0000 113.200 TC 40 995 2 267
1962045S19118 1962 19 SI WA NOT_NAMED 1962-02-15 21:00:00 TS -20.0608 113.231 main 217 217 ______P_____P_ -1 -20.1540 112.948 -20.0075 113.058 TC 40 995 2 268
1962045S19118 1962 19 SI WA NOT_NAMED 1962-02-15 23:00:00 TS -20.0604 113.150 main 221 221 ______P_____P_ -1 -20.1359 112.904 -20.0057 112.956 TC 40 995 2 272
1962045S19118 1962 19 SI WA NOT_NAMED 1962-02-16 00:00:00 TS -20.0571 113.107 main 221 221 ______P_____O_ -1 -20.1241 112.884 -20.0000 112.900 TC 40 995 3 278
1962045S19118 1962 19 SI WA NOT_NAMED 1962-02-16 03:00:00 TS -20.0350 112.968 main 236 236 ______P_____P_ -1 -20.0789 112.820 -19.9650 112.708 TC 40 995 3 283
1962045S19118 1962 19 SI WA NOT_NAMED 1962-02-16 06:00:00 TS -19.9938 112.813 main 246 246 ______P_____O_ -1 -20.0214 112.736 -19.9000 112.500 TC 40 995 3 287
1962045S19118 1962 19 SI WA NOT_NAMED 1962-02-16 07:00:00 TS -19.9760 112.758 995 bom main 246 246 ______O_____P_ -1 -20.0000 112.700 995 -19.8724 112.433 TC 40 995 3 287
1962045S19118 1962 19 SI WA NOT_NAMED 1962-02-16 09:00:00 TS -19.9422 112.637 main 266 266 ______P_____P_ -1 -19.9786 112.601 -19.8075 112.300 TC 40 995 4 288
1962045S19118 1962 19 SI WA NOT_NAMED 1962-02-16 11:00:00 TS -19.9009 112.512 main 272 242 ______P_____P_ -1 -19.9507 112.498 -19.7359 112.167 TC 40 995 12 81
1962045S19118 1962 19 SI WA NOT_NAMED 1962-02-16 12:00:00 TS -19.8455 113.255 main 245 238 O_____P__O__O_ jtwc_sh SH141962 -19.7000 116.500 -1 -19.9338 112.444 -19.7000 116.500 TC -19.7000 112.100 TC 40 995 13 85
1962045S19118 1962 19 SI WA NOT_NAMED 1962-02-16 15:00:00 TS -19.8260 113.411 main 242 242 P_____P__P__P_ SH141962 -19.8582 115.728 -1 -19.8682 112.266 -19.8582 115.728 TC -19.6148 111.930 TC 40 995 0 80
1962045S19118 1962 19 SI WA NOT_NAMED 1962-02-16 18:00:00 TS -19.8385 113.296 main 245 245 O_____P__O__O_ jtwc_sh SH141962 -20.0000 115.000 -1 -19.7758 112.055 -20.0000 115.000 TC -19.5000 111.700 TC 40 995 4 267
1962045S19118 1962 19 SI WA NOT_NAMED 1962-02-16 21:00:00 TS -19.8472 113.039 main 256 256 P_____P__P__P_ SH141962 -20.1149 114.367 -1 -19.6503 111.798 -20.1149 114.367 TC -19.3077 111.307 TC 40 995 6 270
1962045S19118 1962 19 SI WA NOT_NAMED 1962-02-16 22:00:00 TS -19.8362 112.895 995 bom main 261 261 P_____O__P__P_ SH141962 -20.1466 114.190 -1 -19.6000 111.700 995 -20.1466 114.190 TC -19.2365 111.165 TC 40 995 8 276
1962045S19118 1962 19 SI WA NOT_NAMED 1962-02-16 23:00:00 TS -19.8220 112.760 main 265 270 P_____P__PO_P_ SH141962 -20.1750 114.033 -1 -19.5426 111.590 995 -20.1750 114.033 TC -20.2000 114.000 1 -19.1663 111.027 TC 40 995 7 277
1962045S19118 1962 19 SI WA NOT_NAMED 1962-02-17 00:00:00 TS -19.8056 112.639 main 276 276 O_____P__OP_O_ jtwc_sh SH141962 -20.2000 113.900 -1 -19.4806 111.473 995 -20.2000 113.900 TC -20.2056 113.943 1 -19.1000 110.900 TC 40 995 6 280
1962045S19118 1962 19 SI WA NOT_NAMED 1962-02-17 03:00:00 TS -19.7527 112.352 main 287 287 P_____P__PP_P_ SH141962 -20.2722 113.625 -1 -19.2765 111.099 995 -20.2722 113.625 TC -20.2200 113.774 1 -18.9349 110.628 TC 40 995 5 285
1962045S19118 1962 19 SI WA NOT_NAMED 1962-02-17 06:00:00 TS -19.6825 112.142 main 315 315 O_____P__OP_O_ jtwc_sh SH141962 -20.3000 113.500 -1 -19.0665 110.720 995 -20.3000 113.500 TC -20.2259 113.617 1 -18.8000 110.400 TC 40 995 4 291
1962045S19118 1962 19 SI WA NOT_NAMED 1962-02-17 07:00:00 TS -19.6546 112.078 995 bom main 315 315 P_____O__PP_P_ SH141962 -20.2947 113.469 -1 -19.0000 110.600 995 -20.2947 113.469 TC -20.2249 113.568 1 -18.7610 110.314 TC 40 995 4 298
1962045S19118 1962 19 SI WA NOT_NAMED 1962-02-17 09:00:00 TS -19.5958 111.971 main 330 330 P_____P__PP_P_ SH141962 -20.2650 113.435 -1 -18.8865 110.415 -20.2650 113.435 TC -20.2171 113.478 1 -18.6925 110.143 TC 40 995 3 303
1962045S19118 1962 19 SI WA NOT_NAMED 1962-02-17 11:00:00 TS -19.5337 111.875 main 346 346 P_____P__PO_P_ SH141962 -20.2219 113.415 -1 -18.7825 110.254 -20.2219 113.415 TC -20.2000 113.400 1 -18.6307 109.978 TC 40 995 3 304
1962045S19118 1962 19 SI WA NOT_NAMED 1962-02-17 12:00:00 TS -19.5036 111.825 main 352 352 O_____P__OP_O_ jtwc_sh SH141962 -20.2000 113.400 -1 -18.7339 110.182 -20.2000 113.400 TC -20.1875 113.366 1 -18.6000 109.900 TC 40 995 3 302
1962045S19118 1962 19 SI WA NOT_NAMED 1962-02-17 15:00:00 TS -19.4196 111.683 main 367 367 P_____P__PP_P_ SH141962 -20.1575 113.315 -1 -18.6003 109.985 -20.1575 113.315 TC -20.1343 113.278 1 -18.4999 109.700 TC 40 995 3 303
1962045S19118 1962 19 SI WA NOT_NAMED 1962-02-17 18:00:00 TS -19.3294 111.536 main 390 390 O_____P__OP_O_ jtwc_sh SH141962 -20.1000 113.200 -1 -18.4830 109.806 -20.1000 113.200 TC -20.0605 113.193 1 -18.4000 109.500 TC 40 995 3 303
1962045S19118 1962 19 SI WA NOT_NAMED 1962-02-17 21:00:00 TS -19.2293 111.376 main 405 405 P_____P__PP_P_ SH141962 -20.0150 113.065 -1 -18.3797 109.628 -20.0150 113.065 TC -19.9691 113.090 1 -18.2999 109.273 TC 40 995 4 303
1962045S19118 1962 19 SI WA NOT_NAMED 1962-02-17 23:00:00 TS -19.1569 111.254 main 412 419 P_____P__PO_P_ SH141962 -19.9417 112.958 -1 -18.3171 109.500 -19.9417 112.958 TC -19.9000 113.000 1 -18.2333 109.097 TC 40 995 4 302
1962045S19118 1962 19 SI WA NOT_NAMED 1962-02-18 00:00:00 TS -19.1191 111.187 main 427 427 O_____P__OP_O_ jtwc_sh SH141962 -19.9000 112.900 -1 -18.2875 109.431 -19.9000 112.900 TC -19.8644 112.944 1 -18.2000 109.000 TC 40 995 5 301
1962045S19118 1962 19 SI WA NOT_NAMED 1962-02-18 03:00:00 TS -18.9969 110.965 main 450 450 P_____P__PP_P_ SH141962 -19.7500 112.715 -1 -18.2036 109.198 -19.7500 112.715 TC -19.7465 112.751 1 -18.0999 108.680 TC 40 995 5 298
1962045S19118 1962 19 SI WA NOT_NAMED 1962-02-18 06:00:00 TS -18.8752 110.705 main 480 480 O_____P__OP_O_ jtwc_sh SH141962 -19.6000 112.500 -1 -18.1254 108.911 -19.6000 112.500 TC -19.6177 112.525 1 -18.0000 108.300 TC 40 995 6 295
1962045S19118 1962 19 SI WA NOT_NAMED 1962-02-18 07:00:00 TS -18.8378 110.611 995 bom main 495 495 P_____O__PP_P_ SH141962 -19.5609 112.425 -1 -18.1000 108.800 995 -19.5609 112.425 TC -19.5737 112.444 1 -17.9614 108.164 TC 40 995 6 291
1962045S19118 1962 19 SI WA NOT_NAMED 1962-02-18 09:00:00 TS -18.7645 110.407 main 510 510 P_____P__PP_P_ SH141962 -19.4925 112.265 -1 -18.0343 108.541 995 -19.4925 112.265 TC -19.4858 112.276 1 -17.8849 107.872 TC 40 995 6 289
1962045S19118 1962 19 SI WA NOT_NAMED 1962-02-18 11:00:00 TS -18.6979 110.186 main 533 533 P_____P__PO_P_ SH141962 -19.4307 112.092 -1 -17.9724 108.261 995 -19.4307 112.092 TC -19.4000 112.100 2 -17.8219 107.561 TC 40 995 7 287
1962045S19118 1962 19 SI WA NOT_NAMED 1962-02-18 12:00:00 TS -18.6674 110.071 main 541 541 O_____P__OP_O_ jtwc_sh SH141962 -19.4000 112.000 -1 -17.9434 108.115 995 -19.4000 112.000 TC -19.3626 112.023 2 -17.8000 107.400 TC 40 995 7 284
1962045S19118 1962 19 SI WA NOT_NAMED 1962-02-18 15:00:00 TS -18.5829 109.702 main 580 580 P_____P__PP_P_ SH141962 -19.2962 111.706 -1 -17.8673 107.652 995 -19.2962 111.706 TC -19.2559 111.790 2 -17.7849 106.908 TC 40 995 10 284
1962045S19118 1962 19 SI WA NOT_NAMED 1962-02-18 18:00:00 TS -18.4149 109.021 main 652 652 O_____P__OP_O_ jtwc_sh SH141962 -19.2000 111.400 -1 -17.8125 107.166 995 -19.2000 111.400 TC -19.1570 111.551 2 -17.8000 106.400 TC 40 995 18 285
1962045S19118 1962 19 SI WA NOT_NAMED 1962-02-18 19:00:00 TS -18.2643 108.477 995 bom main 701 701 P_____O__PP_P_ SH141962 -19.1794 111.316 -1 -17.8000 107.000 995 -19.1794 111.316 TC -19.1256 111.469 2 -17.7870 106.199 TC 40 995 28 286
1962045S19118 1962 19 SI WA NOT_NAMED 1962-02-18 21:00:00 TS -18.0375 107.588 main 798 798 P_____P__PP_P_ SH141962 -19.1519 111.165 -1 -17.7290 106.629 995 -19.1519 111.165 TC -19.0651 111.305 2 -17.7628 105.802 TC 40 995 31 284
1962045S19118 1962 19 SI WA NOT_NAMED 1962-02-18 23:00:00 TS -17.7506 106.367 main 917 932 P_____P__PP_P_ SH141962 -19.1402 111.032 -1 -17.6706 106.252 995 -19.1402 111.032 TC -19.0075 111.136 2 -17.7716 105.492 TC 40 995 27 282
1962045S19118 1962 19 SI WA NOT_NAMED 1962-02-19 00:00:00 TS -17.7511 106.222 main 935 935 P_____P__PP_O_ SH141962 -19.1393 110.971 -1 -17.6533 106.067 995 -19.1393 110.971 TC -18.9796 111.050 2 -17.8000 105.400 TC 40 995 7 261
1962045S19118 1962 19 SI WA NOT_NAMED 1962-02-19 03:00:00 TS -17.8220 105.877 main 962 962 P_____P__PP_P_ SH141962 -19.1513 110.803 -1 -17.6832 105.565 995 -19.1513 110.803 TC -18.8997 110.786 2 -18.0122 105.422 TC 40 995 6 250
1962045S19118 1962 19 SI WA NOT_NAMED 1962-02-19 05:00:00 TS -17.9237 105.720 995 bom main 976 970 P_____O__PP_P_ SH141962 -19.1676 110.698 -1 -17.8000 105.300 995 -19.1676 110.698 TC -18.8492 110.604 2 -18.2035 105.593 TC 40 995 5 231
1962045S19118 1962 19 SI WA NOT_NAMED 1962-02-19 06:00:00 TS -17.9891 105.656 main 970 970 P_____P__PP_O_ SH141962 -19.1770 110.645 -1 -17.8952 105.186 995 -19.1770 110.645 TC -18.8247 110.510 2 -18.3000 105.700 TC 40 995 5 221
1962045S19118 1962 19 SI WA NOT_NAMED 1962-02-19 07:00:00 TS -18.0548 105.602 995 bom main 973 967 P_____O__PP_P_ SH141962 -19.1868 110.591 -1 -18.0000 105.100 995 -19.1868 110.591 TC -18.8007 110.416 2 -18.3834 105.802 TC 39 995 4 204
1962045S19118 1962 19 SI WA NOT_NAMED 1962-02-19 09:00:00 TS -18.1807 105.563 main 967 961 P_____P__PP_P_ SH141962 -19.2055 110.480 -1 -18.1793 105.069 -19.2055 110.480 TC -18.7539 110.223 2 -18.5502 106.042 TC 37 995 4 185
1962045S19118 1962 19 SI WA NOT_NAMED 1962-02-19 11:00:00 TS -18.3070 105.600 main 961 956 P_____P__PP_P_ SH141962 -19.2206 110.358 -1 -18.3393 105.203 -19.2206 110.358 TC -18.7087 110.023 2 -18.7168 106.290 TC 35 995 4 161
1962045S19118 1962 19 SI WA NOT_NAMED 1962-02-19 12:00:00 TS -18.3714 105.639 main 956 926 P_____P__PP_O_ SH141962 -19.2257 110.292 -1 -18.4142 105.317 -19.2257 110.292 TC -18.6865 109.921 2 -18.8000 106.400 TC 35 996 5 141
1962045S19118 1962 19 SI WA NOT_NAMED 1962-02-19 15:00:00 TS -18.5846 105.839 main 926 888 P_____P__PP_P_ SH141962 -19.2265 110.066 -1 -18.6280 105.781 -19.2265 110.066 TC -18.6218 109.604 2 -19.0424 106.630 TC 35 996 6 136
1962045S19118 1962 19 SI WA NOT_NAMED 1962-02-19 18:00:00 TS -18.8259 106.098 main 888 858 P_____P__PP_O_ SH141962 -19.1968 109.786 -1 -18.8435 106.300 -19.1968 109.786 TC -18.5590 109.270 2 -19.3000 106.800 TC 35 997 7 135
1962045S19118 1962 19 SI WA NOT_NAMED 1962-02-19 20:00:00 TS -19.0157 106.287 997 bom main 858 844 P_____O__PP_P_ SH141962 -19.1544 109.561 -1 -19.0000 106.600 997 -19.1544 109.561 TC -18.5178 109.038 2 -19.5193 106.930 TC 35 997 8 140
1962045S19118 1962 19 SI WA NOT_NAMED 1962-02-19 21:00:00 TS -19.1214 106.363 main 844 824 P_____P__PP_P_ SH141962 -19.1251 109.436 -1 -19.1041 106.681 997 -19.1251 109.436 TC -18.4973 108.919 2 -19.6300 106.987 TC 35 997 8 146
1962045S19118 1962 19 SI WA NOT_NAMED 1962-02-19 23:00:00 TS -19.3301 106.508 main 824 778 P_____P__PP_P_ SH141962 -19.0484 109.156 -1 -19.3229 106.820 997 -19.0484 109.156 TC -18.4563 108.674 2 -19.8259 107.075 TC 35 997 14 108
1962045S19118 1962 19 SI WA NOT_NAMED 1962-02-20 00:00:00 TS -19.3395 107.062 main 769 736 O_____P__OP_O_ jtwc_sh SH141962 -19.0000 109.000 -1 -19.4344 106.880 997 -19.0000 109.000 TC -18.4359 108.548 2 -19.9000 107.100 TC 35 997 12 95
1962045S19118 1962 19 SI WA NOT_NAMED 1962-02-20 03:00:00 TS -19.3922 107.326 main 745 745 P_____P__PP_P_ SH141962 -18.8087 108.465 -1 -19.7574 107.015 997 -18.8087 108.465 TC -18.3739 108.156 2 -20.0100 107.095 TC 35 997 2 85
1962045S19118 1962 19 SI WA NOT_NAMED 1962-02-20 06:00:00 TS -19.3166 107.317 main 750 750 O_____P__OP_O_ jtwc_sh SH141962 -18.6000 107.900 -1 -20.0287 107.089 997 -18.6000 107.900 TC -18.3107 107.742 2 -20.0000 107.000 TC 35 997 3 0
1962045S19118 1962 19 SI WA NOT_NAMED 1962-02-20 07:00:00 TS -19.2133 107.313 998 bom main 756 756 P_____O__PP_P_ SH141962 -18.5307 107.714 -1 -20.1000 107.100 998 -18.5307 107.714 TC -18.2892 107.599 2 -19.9838 106.959 TC 35 996 4 311
1962045S19118 1962 19 SI WA NOT_NAMED 1962-02-20 09:00:00 TS -19.1707 107.146 main 774 774 P_____P__PP_P_ SH141962 -18.3924 107.343 -1 -20.1708 107.111 -18.3924 107.343 TC -18.2453 107.305 2 -19.9225 106.857 TC 37 996 5 287
1962045S19118 1962 19 SI WA NOT_NAMED 1962-02-20 11:00:00 TS -19.1171 106.970 main 789 789 P_____P__PO_P_ SH141962 -18.2609 106.978 -1 -20.1930 107.090 -18.2609 106.978 TC -18.2000 107.000 1 -19.8412 106.750 TC 39 995 5 288
1962045S19118 1962 19 SI WA NOT_NAMED 1962-02-20 12:00:00 TS -19.0886 106.875 main 798 798 O_____P__OP_O_ jtwc_sh SH141962 -18.2000 106.800 -1 -20.1880 107.070 -18.2000 106.800 TC -18.1548 106.776 1 -19.8000 106.700 TC 40 995 6 290
1962045S19118 1962 19 SI WA NOT_NAMED 1962-02-20 15:00:00 TS -18.9785 106.559 main 831 831 P_____P__PP_P_ SH141962 -18.0199 106.285 -1 -20.1197 106.971 -18.0199 106.285 TC -18.0221 106.103 1 -19.7000 106.600 TC 40 994 6 290
1962045S19118 1962 19 SI WA NOT_NAMED 1962-02-20 18:00:00 TS -18.8759 106.247 main 873 873 O_____P__OP_O_ jtwc_sh SH141962 -17.9000 105.800 -1 -19.9898 106.828 -17.9000 105.800 TC -17.9186 105.510 1 -19.6000 106.500 TC 40 994 6 287
1962045S19118 1962 19 SI WA NOT_NAMED 1962-02-20 21:00:00 TS -18.7887 105.905 main 906 906 P_____P__PP_P_ SH141962 -17.8400 105.193 -1 -19.8222 106.653 -17.8400 105.193 TC -17.8770 105.109 1 -19.4850 106.357 TC 40 993 6 284
1962045S19118 1962 19 SI WA NOT_NAMED 1962-02-20 23:00:00 TS -18.7580 105.744 main 924 924 P_____P__PO_P_ SH141962 -17.8635 104.933 -1 -19.7014 106.525 -17.8635 104.933 TC -17.9000 105.000 1 -19.4219 106.253 TC 40 993 4 280
1962045S19118 1962 19 SI WA NOT_NAMED 1962-02-21 00:00:00 TS -18.7564 105.713 main 924 915 O_____P__OP_O_ jtwc_sh SH141962 -17.9000 104.900 -1 -19.6410 106.459 -17.9000 104.900 TC -17.9424 105.053 1 -19.4000 106.200 TC 40 993 1 120
1962045S19118 1962 19 SI WA NOT_NAMED 1962-02-21 03:00:00 TS -18.8068 105.830 main 915 891 P_____P__PP_P_ SH141962 -18.1205 105.329 -1 -19.4701 106.257 -18.1205 105.329 TC -18.1393 105.433 1 -19.3700 106.043 TC 40 993 4 114
1962045S19118 1962 19 SI WA NOT_NAMED 1962-02-21 06:00:00 TS -18.9029 106.058 main 882 882 O_____P__OP_O_ jtwc_sh SH141962 -18.4000 106.000 -1 -19.3337 106.062 -18.4000 106.000 TC -18.3956 105.995 1 -19.4000 105.900 TC 40 993 5 115
1962045S19118 1962 19 SI WA NOT_NAMED 1962-02-21 07:00:00 TS -18.9349 106.118 993 bom main 882 867 P_____O__PP_P_ SH141962 -18.4776 106.166 -1 -19.3000 106.000 993 4 -18.4776 106.166 TC -18.4842 106.189 1 -19.4219 105.864 TC 40 993 4 123
1962045S19118 1962 19 SI WA NOT_NAMED 1962-02-21 09:00:00 TS -19.0023 106.221 main 867 853 P_____P__PP_P_ SH141962 -18.6224 106.455 -1 -19.2542 105.883 -18.6224 106.455 TC -18.6539 106.542 1 -19.4850 105.800 TC 40 994 3 132
1962045S19118 1962 19 SI WA NOT_NAMED 1962-02-21 11:00:00 TS -19.0687 106.279 main 853 853 P_____P__PO_P_ SH141962 -18.7473 106.651 -1 -19.2355 105.775 -18.7473 106.651 TC -18.8000 106.800 1 -19.5614 105.736 TC 40 994 2 148
1962045S19118 1962 19 SI WA NOT_NAMED 1962-02-21 12:00:00 TS -19.0967 106.275 main 853 853 O_____P__OP_O_ jtwc_sh SH141962 -18.8000 106.700 -1 -19.2356 105.725 -18.8000 106.700 TC -18.8449 106.826 1 -19.6000 105.700 TC 40 995 2 225
1962045S19118 1962 19 SI WA NOT_NAMED 1962-02-21 15:00:00 TS -19.1736 106.165 main 857 857 P_____P__PP_P_ SH141962 -18.9224 106.633 -1 -19.2698 105.583 -18.9224 106.633 TC -18.9469 106.765 1 -19.7075 105.550 TC 37 995 3 242
1962045S19118 1962 19 SI WA NOT_NAMED 1962-02-21 18:00:00 TS -19.2423 105.982 main 875 870 O_____P__OP_O_ jtwc_sh SH141962 -19.0000 106.400 -1 -19.3485 105.455 -19.0000 106.400 TC -19.0144 106.558 1 -19.8000 105.400 TC 35 996 3 251
1962045S19118 1962 19 SI WA NOT_NAMED 1962-02-21 21:00:00 TS -19.2823 105.831 main 889 889 P_____P__PP_P_ SH141962 -19.0500 106.200 -1 -19.4634 105.339 -19.0500 106.200 TC -19.0657 106.283 1 -19.8600 105.287 TC 35 996 3 255
1962045S19118 1962 19 SI WA NOT_NAMED 1962-02-21 23:00:00 TS -19.3030 105.739 main 899 899 P_____P__PO_P_ SH141962 -19.0803 106.064 -1 -19.5559 105.267 -19.0803 106.064 TC -19.1000 106.100 1 -19.8877 105.228 TC 35 996 2 259
1962045S19118 1962 19 SI WA NOT_NAMED 1962-02-22 00:00:00 TS -19.3032 105.712 main 899 899 O_____P__OP_O_ jtwc_sh SH141962 -19.1000 106.000 -1 -19.6060 105.232 -19.1000 106.000 TC -19.1213 106.038 1 -19.9000 105.200 TC 35 997 2 242
1962045S19118 1962 19 SI WA NOT_NAMED 1962-02-22 03:00:00 TS -19.3614 105.621 main 903 903 P_____P__PP___ SH141962 -19.1999 105.850 -1 -19.7681 105.130 -19.1999 105.850 TC -19.1837 105.850 1 TC 2 233
1962045S19118 1962 19 SI WA NOT_NAMED 1962-02-22 06:00:00 TS -19.4479 105.507 main 913 913 O_____P__OP___ jtwc_sh SH141962 -19.3000 105.700 -1 -19.9413 105.032 -19.3000 105.700 TC -19.2511 105.668 1 2 237
1962045S19118 1962 19 SI WA NOT_NAMED 1962-02-22 07:00:00 TS -19.4478 105.480 998 bom main 913 913 P_____O__PP___ SH141962 -19.3171 105.634 -1 -20.0000 105.000 998 -19.3171 105.634 TC -19.2763 105.610 1 2 275
1962045S19118 1962 19 SI WA NOT_NAMED 1962-02-22 09:00:00 TS -19.4402 105.415 main 923 918 P________PP___ SH141962 -19.3425 105.492 -1 -19.3425 105.492 TC -19.3329 105.499 1 2 264
1962045S19118 1962 19 SI WA NOT_NAMED 1962-02-22 11:00:00 TS -19.4637 105.323 main 928 928 P________PO___ SH141962 -19.3746 105.358 -1 -19.3746 105.358 TC -19.4000 105.400 1 2 257
1962045S19118 1962 19 SI WA NOT_NAMED 1962-02-22 12:00:00 TS -19.4685 105.293 main 928 928 O________OP___ jtwc_sh SH141962 -19.4000 105.300 -1 -19.4000 105.300 TC -19.4383 105.355 1 2 233
1962045S19118 1962 19 SI WA NOT_NAMED 1962-02-22 15:00:00 TS -19.5489 105.207 main 937 929 P________PP___ SH141962 -19.5275 105.178 -1 -19.5275 105.178 TC -19.5703 105.237 1 3 213
1962045S19118 1962 19 SI WA NOT_NAMED 1962-02-22 18:00:00 TS -19.7135 105.124 main 938 930 O________OP___ jtwc_sh SH141962 -19.7000 105.100 -1 -19.7000 105.100 TC -19.7224 105.139 1 4 203
1962045S19118 1962 19 SI WA NOT_NAMED 1962-02-22 21:00:00 NR -19.8870 105.054 main 930 930 __________P___ SH141962 -1 TC -19.8870 105.054 1 4 202
1962045S19118 1962 19 SI WA NOT_NAMED 1962-02-22 23:00:00 NR -20.0000 105.000 main 936 __________O___ SH141962 -1 TC -20.0000 105.000 1 4 205

IBTrACS Databaseについて

本データベースは、米国NOAAが公開する1842年以降の世界の熱帯低気圧のベストトラックデータアーカイブInternational Best Track Archive for Climate Stewardship (IBTrACS)を、ウェブで閲覧しやすい形式に変換したものです。

最終更新日:2021-10-08